Time;durP1;ratioP1;P1;durP2;ratioP2;P2;SDS_P1;SDS_P2;PMS_P1;PMS_P2;Temp;Humidity;BMP_temperature;BMP_pressure;BME280_temperature;BME280_humidity;BME280_pressure;Samples;Min_cycle;Max_cycle;Signal;HPM_P1;HPM_P2
2021/12/02 00:04:48;;;;;;;6.40;3.40;;;;;;;6.04;84.29;96182.77;422561;1304;99314;-41
2021/12/02 00:14:58;;;;;;;5.30;3.90;;;;;;;6.07;84.36;96178.83;422772;1304;111174;-40
2021/12/02 00:25:06;;;;;;;9.70;5.00;;;;;;;6.04;84.27;96187.70;422879;1305;109180;-41
2021/12/02 00:35:16;;;;;;;14.40;5.60;;;;;;;6.04;84.05;96179.45;422465;1306;98418;-42
2021/12/02 00:45:24;;;;;;;8.00;3.40;;;;;;;6.08;84.02;96180.20;422768;1304;108863;-41
2021/12/02 00:55:31;;;;;;;8.60;3.50;;;;;;;6.10;84.08;96179.83;422752;1304;99325;-42
2021/12/02 01:05:40;;;;;;;8.40;4.70;;;;;;;6.08;84.03;96187.60;422579;1304;112489;-41
2021/12/02 01:15:49;;;;;;;3.90;3.40;;;;;;;6.10;83.61;96189.70;418294;1305;5822749;-41
2021/12/02 01:25:59;;;;;;;3.90;2.70;;;;;;;6.11;83.54;96189.95;422726;1306;99299;-42
2021/12/02 01:36:07;;;;;;;6.20;3.30;;;;;;;6.09;83.43;96181.73;422618;1305;109099;-41
2021/12/02 01:46:14;;;;;;;6.00;3.30;;;;;;;6.02;83.31;96172.95;422577;1306;99338;-41
2021/12/02 01:56:22;;;;;;;4.20;3.10;;;;;;;5.90;83.15;96168.61;422789;1306;112429;-41
2021/12/02 02:06:30;;;;;;;4.50;2.40;;;;;;;5.90;83.08;96158.80;422220;1306;108878;-41
2021/12/02 02:16:40;;;;;;;3.30;2.40;;;;;;;5.92;83.05;96178.35;422604;1306;98899;-42
2021/12/02 02:26:48;;;;;;;5.60;2.70;;;;;;;5.93;82.97;96176.14;422446;1306;108872;-40
2021/12/02 02:36:57;;;;;;;4.30;3.00;;;;;;;5.80;83.05;96184.73;423276;1294;98933;-41
2021/12/02 02:47:05;;;;;;;3.20;2.40;;;;;;;5.68;83.01;96193.92;422369;1307;112429;-41
2021/12/02 02:57:15;;;;;;;2.60;2.30;;;;;;;5.65;82.77;96198.63;422389;1306;108820;-41
2021/12/02 03:17:32;;;;;;;4.40;2.40;;;;;;;5.66;82.81;96209.43;422717;1304;113053;-41
2021/12/02 03:27:39;;;;;;;4.70;2.80;;;;;;;5.62;82.84;96225.30;422637;1304;108946;-41
2021/12/02 03:37:47;;;;;;;2.70;2.30;;;;;;;5.55;82.67;96232.31;423124;1304;99303;-41
2021/12/02 03:47:54;;;;;;;2.40;2.20;;;;;;;5.54;82.62;96234.57;422593;1307;112586;-41
2021/12/02 03:58:01;;;;;;;3.20;2.20;;;;;;;5.54;82.49;96243.42;422433;1308;107826;-40
2021/12/02 04:08:11;;;;;;;3.50;2.50;;;;;;;5.51;82.58;96240.21;422369;1304;98909;-41
2021/12/02 04:18:16;;;;;;;;;;;;;;;5.39;82.61;96251.47;422697;1305;109003;-41
2021/12/02 04:28:23;;;;;;;3.40;2.20;;;;;;;5.28;82.50;96262.42;422571;1305;99396;-41
2021/12/02 04:48:37;;;;;;;1.80;1.70;;;;;;;5.29;82.54;96280.14;422850;1304;108816;-42
2021/12/02 04:58:44;;;;;;;3.60;2.30;;;;;;;5.28;82.49;96285.64;422469;1304;98871;-41
2021/12/02 05:08:51;;;;;;;3.60;2.60;;;;;;;5.17;82.46;96294.20;422622;1306;108959;-41
2021/12/02 05:18:59;;;;;;;3.50;2.10;;;;;;;5.11;82.45;96298.25;422576;1305;99247;-40
2021/12/02 05:29:06;;;;;;;3.40;2.20;;;;;;;5.15;82.38;96295.91;422513;1306;112756;-43
2021/12/02 05:39:14;;;;;;;3.90;2.30;;;;;;;5.16;82.38;96296.71;422474;1305;108354;-41
2021/12/02 05:49:21;;;;;;;3.60;2.10;;;;;;;5.15;82.24;96306.86;422532;1305;98101;-42
2021/12/02 05:59:28;;;;;;;2.00;1.70;;;;;;;5.08;81.89;96318.03;422591;1305;108928;-40
2021/12/02 06:09:35;;;;;;;20.70;12.20;;;;;;;5.05;81.85;96324.93;422225;1305;98912;-41
2021/12/02 06:19:42;;;;;;;4.30;3.10;;;;;;;4.99;81.70;96346.88;422469;1306;111623;-40
2021/12/02 06:29:49;;;;;;;8.00;5.00;;;;;;;4.84;81.76;96358.55;422456;1306;109581;-41
2021/12/02 06:39:56;;;;;;;6.20;3.20;;;;;;;4.76;81.41;96370.04;422722;1306;99273;-39
2021/12/02 06:50:05;;;;;;;5.60;2.10;;;;;;;4.79;81.26;96389.34;422891;1304;108851;-41
2021/12/02 07:00:16;;;;;;;8.80;4.20;;;;;;;4.95;81.05;96402.11;422520;1304;99292;-42
2021/12/02 07:10:25;;;;;;;12.00;5.20;;;;;;;5.04;81.04;96411.89;422702;1304;112408;-41
2021/12/02 07:30:42;;;;;;;5.00;2.80;;;;;;;5.22;80.49;96453.69;422627;1306;99286;-41
2021/12/02 07:40:48;;;;;;;5.50;3.10;;;;;;;5.47;80.49;96467.33;422815;1306;108931;-39
2021/12/02 07:50:55;;;;;;;14.10;7.00;;;;;;;5.58;80.34;96488.86;422762;1306;99142;-40
2021/12/02 08:01:03;;;;;;;15.30;6.60;;;;;;;5.68;79.90;96492.61;422673;1304;112223;-41
2021/12/02 08:11:12;;;;;;;22.90;8.40;;;;;;;5.69;79.93;96514.66;422560;1306;108824;-40
2021/12/02 08:21:18;;;;;;;21.80;9.60;;;;;;;5.76;79.67;96512.24;422842;1304;99281;-40
2021/12/02 08:31:26;;;;;;;36.70;15.50;;;;;;;6.45;79.78;96518.27;422637;1306;109283;-41
2021/12/02 08:41:33;;;;;;;19.90;10.30;;;;;;;7.20;78.72;96534.77;422595;1304;99189;-41
2021/12/02 09:01:48;;;;;;;28.60;14.30;;;;;;;7.52;77.50;96549.63;422720;1305;108944;-41
2021/12/02 09:11:57;;;;;;;17.80;7.10;;;;;;;7.75;76.63;96561.17;422893;1306;98909;-40
2021/12/02 09:22:05;;;;;;;17.50;7.30;;;;;;;7.65;75.94;96576.36;418795;1305;5600127;-40
2021/12/02 09:42:20;;;;;;;8.90;4.20;;;;;;;7.07;73.66;96581.67;422507;1306;112390;-41
2021/12/02 09:52:35;;;;;;;9.70;4.60;;;;;;;6.83;73.70;96596.70;422747;1306;108891;-40
2021/12/02 10:02:51;;;;;;;11.80;4.70;;;;;;;6.76;73.63;96598.91;422851;1306;98796;-41
2021/12/02 10:13:05;;;;;;;8.70;4.00;;;;;;;6.83;73.28;96596.48;422647;1306;109426;-41
2021/12/02 10:33:28;;;;;;;4.20;2.80;;;;;;;7.03;71.67;96590.63;422722;1304;99286;-41
2021/12/02 10:43:36;;;;;;;3.80;2.10;;;;;;;6.93;71.02;96584.88;422633;1304;111341;-41
2021/12/02 10:53:59;;;;;;;5.70;2.70;;;;;;;6.81;70.46;96587.69;422909;1303;108924;-42
2021/12/02 11:04:06;;;;;;;11.50;2.40;;;;;;;6.76;70.17;96594.29;422692;1304;99279;-40
2021/12/02 11:14:14;;;;;;;11.40;3.80;;;;;;;6.86;70.04;96602.81;422881;1304;111194;-40
2021/12/02 11:24:31;;;;;;;4.10;2.30;;;;;;;6.85;68.81;96615.04;422402;1306;108943;-42
2021/12/02 11:34:38;;;;;;;4.00;1.50;;;;;;;6.64;67.13;96619.64;422652;1306;98906;-42
2021/12/02 11:44:45;;;;;;;3.90;1.60;;;;;;;6.50;66.73;96629.80;422630;1306;107663;-40
2021/12/02 11:54:53;;;;;;;4.60;2.00;;;;;;;6.39;66.60;96638.02;422553;1306;99324;-40
2021/12/02 12:05:01;;;;;;;5.20;2.10;;;;;;;6.26;65.47;96646.15;422740;1305;111507;-41
2021/12/02 12:15:06;;;;;;;29.00;9.60;;;;;;;6.16;65.46;96649.89;422768;1306;109068;-40
2021/12/02 12:25:29;;;;;;;6.30;3.40;;;;;;;6.16;65.89;96645.91;423072;1306;99952;-40
2021/12/02 12:45:49;;;;;;;8.20;1.90;;;;;;;5.99;66.11;96650.95;423097;1304;108904;-40
2021/12/02 12:56:11;;;;;;;2.70;1.90;;;;;;;5.81;65.87;96654.31;422486;1306;99379;-41
2021/12/02 13:06:24;;;;;;;5.40;2.20;;;;;;;5.66;66.74;96655.58;422847;1306;112477;-41
2021/12/02 13:16:32;;;;;;;10.90;5.20;;;;;;;5.50;66.97;96668.61;422565;1305;108871;-40
2021/12/02 13:26:42;;;;;;;5.40;2.80;;;;;;;5.37;66.96;96667.41;422806;1306;99288;-40
2021/12/02 13:36:51;;;;;;;7.40;3.50;;;;;;;5.21;67.26;96682.20;422389;1304;111400;-41
2021/12/02 13:47:00;;;;;;;29.70;14.50;;;;;;;5.02;67.58;96695.16;422876;1306;108862;-40
2021/12/02 13:57:37;;;;;;;28.50;11.90;;;;;;;4.86;68.12;96713.79;422500;1306;98929;-41
2021/12/02 14:07:47;;;;;;;36.90;17.30;;;;;;;4.65;68.29;96713.56;423001;1304;112495;-40
2021/12/02 14:28:21;;;;;;;20.10;10.80;;;;;;;4.37;69.02;96722.27;422862;1306;99389;-41
2021/12/02 14:38:26;;;;;;;15.50;7.00;;;;;;;4.10;69.29;96730.34;422529;1306;112417;-40
2021/12/02 14:58:40;;;;;;;20.50;7.40;;;;;;;3.55;69.89;96752.92;422546;1306;99310;-40
2021/12/02 15:08:47;;;;;;;15.10;7.60;;;;;;;3.42;70.37;96763.05;422878;1306;112456;-40
2021/12/02 15:18:54;;;;;;;38.70;17.20;;;;;;;3.26;70.50;96788.62;422694;1306;109048;-41
2021/12/02 15:29:02;;;;;;;65.90;24.50;;;;;;;3.07;70.67;96797.34;422389;1304;108830;-41
2021/12/02 15:39:09;;;;;;;37.90;22.30;;;;;;;2.93;70.79;96810.17;422657;1304;99299;-41
2021/12/02 15:49:20;;;;;;;25.60;10.60;;;;;;;2.90;71.04;96821.85;422587;1304;108952;-41
2021/12/02 15:59:36;;;;;;;18.40;8.30;;;;;;;2.78;71.27;96830.37;422663;1304;98880;-40
2021/12/02 16:20:00;;;;;;;87.40;35.40;;;;;;;2.45;71.73;96859.66;422625;1304;108721;-40
2021/12/02 16:30:12;;;;;;;68.20;27.80;;;;;;;2.38;71.87;96874.77;422389;1306;99948;-40
2021/12/02 16:50:30;;;;;;;12.10;6.80;;;;;;;2.23;72.18;96901.83;422623;1306;108894;-42
2021/12/02 17:00:41;;;;;;;34.40;13.70;;;;;;;2.23;71.99;96907.00;422574;1304;99799;-41
2021/12/02 17:11:06;;;;;;;53.30;26.50;;;;;;;2.22;72.29;96918.86;422829;1306;112674;-42
2021/12/02 17:21:13;;;;;;;59.70;28.50;;;;;;;2.14;72.33;96927.40;418540;1306;5390901;-42
2021/12/02 17:31:22;;;;;;;50.30;22.00;;;;;;;1.94;72.29;96944.62;422627;1306;99277;-40
2021/12/02 17:41:30;;;;;;;48.00;22.50;;;;;;;1.89;72.47;96950.70;422919;1309;112049;-40
2021/12/02 17:51:37;;;;;;;49.50;18.20;;;;;;;1.82;72.21;96957.02;422490;1306;108898;-43
2021/12/02 18:01:45;;;;;;;14.60;6.80;;;;;;;1.76;72.08;96962.38;422899;1307;98090;-41
2021/12/02 18:11:53;;;;;;;16.70;6.10;;;;;;;1.68;72.15;96973.95;422541;1309;112345;-41
2021/12/02 18:22:01;;;;;;;23.80;8.40;;;;;;;1.62;72.22;96989.79;422636;1306;108736;-41
2021/12/02 18:32:09;;;;;;;22.70;9.00;;;;;;;1.56;72.09;97001.27;422653;1306;99297;-40
2021/12/02 18:42:16;;;;;;;28.40;8.90;;;;;;;1.42;72.03;97009.27;422737;1309;112836;-40
2021/12/02 18:52:29;;;;;;;20.40;8.60;;;;;;;1.28;72.15;97011.84;422681;1304;108066;-42
2021/12/02 19:33:25;;;;;;;15.40;5.70;;;;;;;1.04;71.87;97050.27;422816;1309;99071;-40
2021/12/02 19:43:32;;;;;;;13.90;6.00;;;;;;;0.90;71.86;97058.93;422862;1304;112810;-40
2021/12/02 19:53:40;;;;;;;28.30;8.00;;;;;;;0.77;71.67;97070.31;422798;1309;109391;-41
2021/12/02 20:03:48;;;;;;;29.60;11.10;;;;;;;0.64;71.84;97076.74;422472;1304;99303;-41
2021/12/02 20:13:55;;;;;;;35.00;15.50;;;;;;;0.54;71.78;97085.06;422904;1304;112380;-41
2021/12/02 20:24:01;;;;;;;14.90;5.60;;;;;;;0.44;71.70;97093.80;422670;1306;108985;-42
2021/12/02 20:34:09;;;;;;;14.80;6.10;;;;;;;0.41;71.62;97103.59;422731;1308;98687;-42
2021/12/02 20:44:17;;;;;;;16.50;5.70;;;;;;;0.41;71.55;97107.64;422285;1304;110900;-42
2021/12/02 20:54:25;;;;;;;27.40;12.30;;;;;;;0.38;71.74;97101.09;422728;1306;108773;-40
2021/12/02 21:04:33;;;;;;;26.00;10.40;;;;;;;0.19;71.75;97105.70;422552;1306;99289;-41
2021/12/02 21:14:40;;;;;;;28.20;11.20;;;;;;;0.02;72.08;97103.27;422805;1306;108906;-40
2021/12/02 21:24:47;;;;;;;22.10;8.40;;;;;;;-0.14;72.27;97105.15;422665;1304;99362;-42
2021/12/02 21:34:54;;;;;;;19.00;8.50;;;;;;;-0.19;72.16;97118.05;422671;1305;112507;-41
2021/12/02 21:45:02;;;;;;;16.40;6.40;;;;;;;-0.17;72.32;97141.76;422439;1304;108871;-41
2021/12/02 21:55:10;;;;;;;26.50;10.20;;;;;;;-0.11;72.43;97150.11;422808;1306;99288;-40
2021/12/02 22:05:18;;;;;;;21.40;8.40;;;;;;;-0.07;72.38;97156.86;422712;1304;112980;-40
2021/12/02 22:15:26;;;;;;;19.90;10.00;;;;;;;-0.08;72.03;97162.77;422994;1304;108874;-40
2021/12/02 22:25:34;;;;;;;22.30;7.70;;;;;;;-0.07;72.13;97179.92;422545;1306;99325;-43
2021/12/02 22:45:47;;;;;;;11.10;4.70;;;;;;;-0.08;72.04;97196.95;422613;1306;108867;-41
2021/12/02 23:06:02;;;;;;;15.70;5.60;;;;;;;0.04;71.61;97218.06;422567;1304;112702;-40
2021/12/02 23:16:10;;;;;;;11.90;5.90;;;;;;;-0.01;71.69;97227.67;422769;1306;107864;-41
2021/12/02 23:26:18;;;;;;;10.20;4.20;;;;;;;-0.14;71.33;97225.53;422526;1304;98005;-39
2021/12/02 23:36:28;;;;;;;9.10;3.70;;;;;;;-0.28;71.38;97224.01;422750;1304;112573;-40
2021/12/02 23:46:35;;;;;;;10.60;3.40;;;;;;;-0.28;71.46;97231.42;422531;1304;108931;-40
2021/12/02 23:56:42;;;;;;;31.70;13.50;;;;;;;-0.25;71.53;97249.55;422822;1304;99203;-41
